createdAt,value
2023-01-15T00:00:18.792Z,93252.00
2023-01-15T00:02:45.236Z,93249.56
2023-01-15T00:05:11.711Z,93241.59
2023-01-15T00:07:38.155Z,93240.38
2023-01-15T00:10:05.097Z,93251.84
2023-01-15T00:12:31.518Z,93246.50
2023-01-15T00:14:58.348Z,93241.31
2023-01-15T00:17:25.105Z,93222.94
2023-01-15T00:19:51.505Z,93222.03
2023-01-15T00:22:17.934Z,93219.41
2023-01-15T00:25:02.889Z,93220.06
2023-01-15T00:27:40.175Z,93206.59
2023-01-15T00:30:11.781Z,93218.06
2023-01-15T00:32:39.671Z,93231.69
2023-01-15T00:35:06.739Z,93239.00
2023-01-15T00:37:33.184Z,93221.28
2023-01-15T00:39:59.609Z,93193.13
2023-01-15T00:42:26.042Z,93195.91
2023-01-15T00:44:52.528Z,93191.75
2023-01-15T00:47:19.005Z,93184.72
2023-01-15T00:49:45.689Z,93163.47
2023-01-15T00:52:14.457Z,93170.50
2023-01-15T00:54:40.882Z,93189.75
2023-01-15T00:57:07.365Z,93171.13
2023-01-15T00:59:33.786Z,93164.25
2023-01-15T01:02:00.369Z,93166.06
2023-01-15T01:04:26.870Z,93148.66
2023-01-15T01:06:53.518Z,93151.41
2023-01-15T01:09:20.050Z,93172.34
2023-01-15T01:11:46.489Z,93159.34
2023-01-15T01:14:12.979Z,93162.38
2023-01-15T01:16:42.082Z,93158.28
2023-01-15T01:19:11.670Z,93170.81
2023-01-15T01:21:39.887Z,93156.13
2023-01-15T01:24:08.020Z,93154.59
2023-01-15T01:26:35.243Z,93136.56
2023-01-15T01:29:03.481Z,93161.94
2023-01-15T01:31:30.066Z,93144.19
2023-01-15T01:33:58.330Z,93129.69
2023-01-15T01:36:33.702Z,93127.38
2023-01-15T01:39:00.788Z,93119.75
2023-01-15T01:41:28.262Z,93123.41
2023-01-15T01:44:01.299Z,93123.41
2023-01-15T01:46:30.152Z,93103.25
2023-01-15T01:49:08.187Z,93114.38
2023-01-15T01:51:39.958Z,93100.94
2023-01-15T01:54:09.828Z,93104.31
2023-01-15T01:56:36.643Z,93087.19
2023-01-15T01:59:05.345Z,93083.06
2023-01-15T02:01:32.020Z,93084.44
2023-01-15T02:03:58.924Z,93088.88
2023-01-15T02:06:27.481Z,93089.78
2023-01-15T02:08:54.760Z,93083.06
2023-01-15T02:11:23.160Z,93078.16
2023-01-15T02:14:07.908Z,93081.38
2023-01-15T02:16:47.512Z,93068.25
2023-01-15T02:19:46.199Z,93065.66
2023-01-15T02:22:31.761Z,93096.53
2023-01-15T02:25:04.578Z,93064.13
2023-01-15T02:27:31.687Z,93066.72
2023-01-15T02:30:13.104Z,93065.97
2023-01-15T02:32:53.725Z,93060.63
2023-01-15T02:35:29.249Z,93054.78
2023-01-15T02:38:02.142Z,93059.25
2023-01-15T02:40:30.265Z,93042.91
2023-01-15T02:42:59.067Z,93044.88
2023-01-15T02:45:30.989Z,93036.47
2023-01-15T02:48:13.210Z,93041.34
2023-01-15T02:50:45.812Z,93043.97
2023-01-15T02:53:17.399Z,93040.75
2023-01-15T02:55:47.777Z,93033.41
2023-01-15T02:58:21.458Z,93032.34
2023-01-15T03:00:51.879Z,93045.34
2023-01-15T03:03:30.783Z,93032.00
2023-01-15T03:06:00.223Z,93028.34
2023-01-15T03:08:27.176Z,93026.22
2023-01-15T03:11:06.014Z,93023.59
2023-01-15T03:13:42.673Z,93038.13
2023-01-15T03:16:35.963Z,93022.41
2023-01-15T03:19:12.056Z,93017.34
2023-01-15T03:21:47.835Z,93029.91
2023-01-15T03:24:21.503Z,93021.78
2023-01-15T03:26:48.014Z,93019.94
2023-01-15T03:29:15.165Z,93030.03
2023-01-15T03:31:42.181Z,93014.13
2023-01-15T03:34:08.750Z,93005.72
2023-01-15T03:36:36.195Z,93003.91
2023-01-15T03:39:03.846Z,93005.72
2023-01-15T03:42:16.278Z,93014.28
2023-01-15T03:44:46.741Z,93013.06
2023-01-15T03:47:42.427Z,93006.50
2023-01-15T03:50:29.583Z,93009.38
2023-01-15T03:53:10.466Z,93003.75
2023-01-15T03:55:59.267Z,92998.09
2023-01-15T03:58:44.440Z,93019.94
2023-01-15T04:01:18.597Z,93006.03
2023-01-15T04:03:48.840Z,92997.63
2023-01-15T04:06:15.886Z,92997.94
2023-01-15T04:08:45.611Z,92991.81
2023-01-15T04:11:12.118Z,93002.38
2023-01-15T04:13:46.565Z,93021.63
2023-01-15T04:16:29.189Z,92983.75
2023-01-15T04:18:56.084Z,92985.91
2023-01-15T04:21:23.565Z,92983.28
2023-01-15T04:23:50.139Z,92972.75
2023-01-15T04:26:16.768Z,92973.97
2023-01-15T04:28:43.479Z,92978.41
2023-01-15T04:31:09.938Z,93001.34
2023-01-15T04:33:36.853Z,92972.31
2023-01-15T04:36:04.121Z,92967.41
2023-01-15T04:38:30.745Z,92967.56
2023-01-15T04:41:22.611Z,92955.66
2023-01-15T04:44:07.493Z,92960.09
2023-01-15T04:46:45.699Z,92955.53
2023-01-15T04:49:15.587Z,92955.66
2023-01-15T04:51:42.166Z,92940.84
2023-01-15T04:54:11.777Z,92924.19
2023-01-15T04:56:44.436Z,92914.56
2023-01-15T04:59:11.045Z,92916.84
2023-01-15T05:01:38.073Z,92915.00
2023-01-15T05:04:05.519Z,92916.53
2023-01-15T05:06:32.493Z,92924.78
2023-01-15T05:09:00.604Z,92917.88
2023-01-15T05:11:28.310Z,92911.91
2023-01-15T05:13:55.445Z,92927.66
2023-01-15T05:16:27.238Z,92915.41
2023-01-15T05:18:54.958Z,92912.66
2023-01-15T05:21:31.561Z,92904.56
2023-01-15T05:24:00.383Z,92900.88
2023-01-15T05:26:28.235Z,92901.63
2023-01-15T05:28:56.348Z,92902.84
2023-01-15T05:31:24.319Z,92918.13
2023-01-15T05:33:52.592Z,92902.84
2023-01-15T05:36:22.418Z,92906.53
2023-01-15T05:38:49.028Z,92904.56
2023-01-15T05:41:36.510Z,92913.41
2023-01-15T05:44:06.587Z,92914.03
2023-01-15T05:46:34.757Z,92922.00
2023-01-15T05:49:02.557Z,92938.66
2023-01-15T05:51:29.792Z,92921.09
2023-01-15T05:53:59.745Z,92926.78
2023-01-15T05:56:26.573Z,92923.25
2023-01-15T05:58:53.845Z,92929.84
2023-01-15T06:01:20.463Z,92938.25
2023-01-15T06:03:48.341Z,92937.47
2023-01-15T06:06:16.967Z,92939.34
2023-01-15T06:08:44.348Z,92939.47
2023-01-15T06:11:11.331Z,92934.16
2023-01-15T06:13:41.905Z,92930.34
2023-01-15T06:16:10.789Z,92919.03
2023-01-15T06:18:38.833Z,92930.06
2023-01-15T06:21:07.484Z,92920.75
2023-01-15T06:23:36.728Z,92920.59
2023-01-15T06:26:05.849Z,92927.63
2023-01-15T06:28:33.318Z,92922.75
2023-01-15T06:30:59.938Z,92923.22
2023-01-15T06:33:26.405Z,92927.94
2023-01-15T06:35:52.827Z,92924.59
2023-01-15T06:38:19.289Z,92926.25
2023-01-15T06:40:45.686Z,92921.38
2023-01-15T06:43:30.781Z,92915.13
2023-01-15T06:46:16.175Z,92917.13
2023-01-15T06:48:43.257Z,92924.59
2023-01-15T06:51:09.710Z,92923.06
2023-01-15T06:53:36.117Z,92925.97
2023-01-15T06:56:02.515Z,92931.94
2023-01-15T06:58:28.912Z,92921.84
2023-01-15T07:00:56.480Z,92925.81
2023-01-15T07:03:23.248Z,92975.72
2023-01-15T07:05:49.982Z,92965.50
2023-01-15T07:08:16.453Z,92976.38
2023-01-15T07:10:43.044Z,92983.38
2023-01-15T07:13:10.068Z,92969.44
2023-01-15T07:15:38.768Z,92991.84
2023-01-15T07:18:05.310Z,93002.00
2023-01-15T07:20:31.775Z,93003.38
2023-01-15T07:22:58.175Z,92996.31
2023-01-15T07:25:24.603Z,93009.28
2023-01-15T07:27:51.003Z,93017.78
2023-01-15T07:30:17.576Z,93022.47
2023-01-15T07:32:43.992Z,93021.06
2023-01-15T07:35:10.441Z,93026.38
2023-01-15T07:37:37.761Z,93021.34
2023-01-15T07:40:04.691Z,93022.38
2023-01-15T07:42:49.596Z,93027.38
2023-01-15T07:45:35.889Z,93033.13
2023-01-15T07:48:21.035Z,93058.06
2023-01-15T07:50:47.449Z,93065.19
2023-01-15T07:53:13.846Z,93060.16
2023-01-15T07:55:40.253Z,93077.16
2023-01-15T07:58:06.643Z,93078.25
2023-01-15T08:00:33.089Z,93078.78
2023-01-15T08:02:59.592Z,93093.59
2023-01-15T08:05:26.023Z,93091.03
2023-01-15T08:07:52.475Z,93098.22
2023-01-15T08:10:19.861Z,93104.16
2023-01-15T08:13:08.349Z,93114.50
2023-01-15T08:15:39.161Z,93115.84
2023-01-15T08:18:05.858Z,93138.81
2023-01-15T08:20:34.918Z,93141.25
2023-01-15T08:23:01.765Z,93148.88
2023-01-15T08:25:28.283Z,93145.88
2023-01-15T08:27:55.065Z,93150.75
2023-01-15T08:30:24.654Z,93153.19
2023-01-15T08:32:51.220Z,93146.09
2023-01-15T08:35:17.900Z,93124.28
2023-01-15T08:37:44.368Z,93151.41
2023-01-15T08:40:11.497Z,93164.38
2023-01-15T08:42:38.469Z,93156.91
2023-01-15T08:45:05.502Z,93149.03
2023-01-15T08:47:32.452Z,93156.78
2023-01-15T08:49:59.082Z,93139.84
2023-01-15T08:52:25.666Z,93158.44
2023-01-15T08:54:52.076Z,93176.78
2023-01-15T08:57:18.470Z,93171.91
2023-01-15T08:59:44.864Z,93157.00
2023-01-15T09:02:14.452Z,93164.75
2023-01-15T09:04:40.981Z,93171.19
2023-01-15T09:07:07.699Z,93178.47
2023-01-15T09:09:34.914Z,93170.78
2023-01-15T09:12:01.390Z,93189.63
2023-01-15T09:14:59.583Z,93194.78
2023-01-15T09:17:14.304Z,93206.63
2023-01-15T09:19:40.735Z,93188.06
2023-01-15T09:22:07.150Z,93214.94
2023-01-15T09:24:33.571Z,93206.13
2023-01-15T09:27:00.183Z,93227.25
2023-01-15T09:29:26.587Z,93213.09
2023-01-15T09:31:53.072Z,93207.69
2023-01-15T09:34:19.924Z,93217.22
2023-01-15T09:36:46.538Z,93221.34
2023-01-15T09:39:13.055Z,93203.06
2023-01-15T09:42:10.247Z,93221.00
2023-01-15T09:45:05.296Z,93233.63
2023-01-15T09:47:39.362Z,93232.84
2023-01-15T09:50:42.804Z,93234.88
2023-01-15T09:53:33.490Z,93256.56
2023-01-15T09:56:02.276Z,93246.78
2023-01-15T09:58:35.426Z,93259.50
2023-01-15T10:01:03.065Z,93268.97
2023-01-15T10:03:45.407Z,93273.91
2023-01-15T10:06:32.709Z,93280.84
2023-01-15T10:09:24.948Z,93283.19
2023-01-15T10:12:27.799Z,93279.63
2023-01-15T10:14:58.467Z,93282.19
2023-01-15T10:17:28.809Z,93278.28
2023-01-15T10:19:56.690Z,93277.81
2023-01-15T10:22:48.539Z,93277.88
2023-01-15T10:25:22.449Z,93275.84
2023-01-15T10:27:52.144Z,93276.88
2023-01-15T10:30:32.046Z,93266.34
2023-01-15T10:33:15.753Z,93264.03
2023-01-15T10:35:54.899Z,93301.69
2023-01-15T10:38:36.855Z,93306.31
2023-01-15T10:41:21.315Z,93308.38
2023-01-15T10:44:01.504Z,93301.13
2023-01-15T10:46:37.987Z,93313.50
2023-01-15T10:49:15.167Z,93311.47
2023-01-15T10:51:46.080Z,93314.53
2023-01-15T10:54:33.046Z,93310.13
2023-01-15T10:57:11.643Z,93319.69
2023-01-15T10:59:44.033Z,93312.97
2023-01-15T11:02:50.259Z,93318.38
2023-01-15T11:05:22.089Z,93315.53
2023-01-15T11:08:16.583Z,93305.41
2023-01-15T11:10:40.669Z,93301.03
2023-01-15T11:13:46.137Z,93318.25
2023-01-15T11:16:36.579Z,93307.66
2023-01-15T11:19:23.994Z,93312.81
2023-01-15T11:21:52.637Z,93330.66
2023-01-15T11:24:19.499Z,93325.28
2023-01-15T11:26:50.431Z,93334.63
2023-01-15T11:29:36.736Z,93338.22
2023-01-15T11:32:03.786Z,93348.34
2023-01-15T11:34:30.286Z,93347.06
2023-01-15T11:37:04.593Z,93364.34
2023-01-15T11:39:31.399Z,93367.19
2023-01-15T11:42:37.830Z,93372.34
2023-01-15T11:45:31.878Z,93380.69
2023-01-15T11:48:16.750Z,93379.22
2023-01-15T11:50:56.382Z,93388.59
2023-01-15T11:53:27.478Z,93395.38
2023-01-15T11:56:00.734Z,93418.94
2023-01-15T11:58:32.086Z,93424.72
2023-01-15T12:00:59.592Z,93438.94
2023-01-15T12:03:31.205Z,93452.13
2023-01-15T12:06:05.645Z,93449.34
2023-01-15T12:09:05.625Z,93456.09
2023-01-15T12:11:50.218Z,93472.09
2023-01-15T12:14:28.903Z,93468.00
2023-01-15T12:17:11.781Z,93473.69
2023-01-15T12:19:44.018Z,93469.06
2023-01-15T12:22:21.985Z,93474.72
2023-01-15T12:24:48.360Z,93483.47
2023-01-15T12:27:33.533Z,93488.38
2023-01-15T12:30:18.736Z,93488.63
2023-01-15T12:32:55.231Z,93495.84
2023-01-15T12:35:58.328Z,93502.00
2023-01-15T12:39:11.156Z,93512.28
2023-01-15T12:42:04.231Z,93514.34
2023-01-15T12:44:56.605Z,93518.72
2023-01-15T12:47:29.734Z,93516.94
2023-01-15T12:50:06.793Z,93511.28
2023-01-15T12:52:43.327Z,93523.34
2023-01-15T12:55:16.063Z,93521.03
2023-01-15T12:57:49.577Z,93524.59
2023-01-15T13:00:39.200Z,93521.03
2023-01-15T13:03:23.184Z,93525.16
2023-01-15T13:06:00.631Z,93545.72
2023-01-15T13:08:32.664Z,93541.81
2023-01-15T13:10:59.101Z,93546.22
2023-01-15T13:13:30.568Z,93563.66
2023-01-15T13:15:59.652Z,93562.13
2023-01-15T13:18:45.020Z,93558.53
2023-01-15T13:21:17.272Z,93549.78
2023-01-15T13:24:05.209Z,93559.81
2023-01-15T13:26:34.533Z,93554.94
2023-01-15T13:29:22.138Z,93558.00
2023-01-15T13:31:57.109Z,93560.06
2023-01-15T13:34:33.754Z,93563.66
2023-01-15T13:37:12.499Z,93563.16
2023-01-15T13:39:43.623Z,93549.28
2023-01-15T13:42:32.261Z,93561.66
2023-01-15T13:45:16.849Z,93561.41
2023-01-15T13:47:52.640Z,93561.41
2023-01-15T13:50:28.790Z,93573.47
2023-01-15T13:53:05.050Z,93571.69
2023-01-15T13:55:37.921Z,93575.53
2023-01-15T13:58:19.635Z,93577.84
2023-01-15T14:00:46.152Z,93592.25
2023-01-15T14:03:38.054Z,93590.97
2023-01-15T14:06:07.814Z,93589.94
2023-01-15T14:08:51.440Z,93587.13
2023-01-15T14:11:30.031Z,93599.22
2023-01-15T14:14:16.166Z,93596.38
2023-01-15T14:17:00.016Z,93582.22
2023-01-15T14:19:29.173Z,93588.41
2023-01-15T14:22:20.323Z,93590.97
2023-01-15T14:25:08.981Z,93591.50
2023-01-15T14:27:54.343Z,93595.09
2023-01-15T14:30:38.586Z,93593.03
2023-01-15T14:33:21.799Z,93598.69
2023-01-15T14:35:49.288Z,93605.41
2023-01-15T14:38:18.867Z,93607.69
2023-01-15T14:41:01.730Z,93602.81
2023-01-15T14:43:33.308Z,93606.41
2023-01-15T14:46:15.323Z,93627.25
2023-01-15T14:48:41.854Z,93620.31
2023-01-15T14:51:15.539Z,93620.06
2023-01-15T14:53:50.316Z,93610.53
2023-01-15T14:56:21.699Z,93616.44
2023-01-15T14:58:51.828Z,93621.34
2023-01-15T15:01:21.313Z,93615.41
2023-01-15T15:04:03.601Z,93620.78
2023-01-15T15:06:30.564Z,93612.00
2023-01-15T15:09:03.044Z,93627.47
2023-01-15T15:12:02.002Z,93602.25
2023-01-15T15:14:30.020Z,93612.03
2023-01-15T15:17:00.394Z,93618.22
2023-01-15T15:19:34.894Z,93612.56
2023-01-15T15:22:06.587Z,93625.19
2023-01-15T15:24:43.496Z,93622.88
2023-01-15T15:27:18.229Z,93605.38
2023-01-15T15:29:45.293Z,93622.34
2023-01-15T15:32:17.740Z,93607.16
2023-01-15T15:34:51.283Z,93605.38
2023-01-15T15:37:21.636Z,93608.47
2023-01-15T15:40:02.015Z,93616.72
2023-01-15T15:42:52.143Z,93603.31
2023-01-15T15:45:40.988Z,93603.84
2023-01-15T15:48:37.271Z,93614.41
2023-01-15T15:51:06.534Z,93600.22
2023-01-15T15:53:32.920Z,93615.44
2023-01-15T15:56:00.762Z,93609.00
2023-01-15T15:58:36.372Z,93607.97
2023-01-15T16:01:03.396Z,93596.66
2023-01-15T16:03:33.296Z,93606.41
2023-01-15T16:06:01.483Z,93619.03
2023-01-15T16:08:29.783Z,93610.03
2023-01-15T16:11:00.183Z,93618.75
2023-01-15T16:13:34.274Z,93620.31
2023-01-15T16:16:02.790Z,93629.56
2023-01-15T16:18:36.437Z,93624.91
2023-01-15T16:21:03.211Z,93626.72
2023-01-15T16:23:30.851Z,93620.28
2023-01-15T16:26:19.681Z,93618.47
2023-01-15T16:28:53.985Z,93618.75
2023-01-15T16:31:22.711Z,93624.13
2023-01-15T16:33:57.966Z,93621.56
2023-01-15T16:36:26.442Z,93616.69
2023-01-15T16:38:54.171Z,93621.28
2023-01-15T16:41:29.515Z,93613.06
2023-01-15T16:43:59.698Z,93608.41
2023-01-15T16:46:30.590Z,93608.41
2023-01-15T16:49:23.408Z,93607.91
2023-01-15T16:51:51.896Z,93608.16
2023-01-15T16:54:41.131Z,93604.28
2023-01-15T16:57:27.774Z,93610.97
2023-01-15T16:59:57.145Z,93604.81
2023-01-15T17:02:23.821Z,93603.00
2023-01-15T17:04:53.221Z,93603.78
2023-01-15T17:07:24.365Z,93600.19
2023-01-15T17:09:59.182Z,93596.59
2023-01-15T17:12:38.088Z,93587.84
2023-01-15T17:15:16.758Z,93590.19
2023-01-15T17:17:44.564Z,93592.22
2023-01-15T17:20:12.960Z,93593.78
2023-01-15T17:22:45.076Z,93593.00
2023-01-15T17:25:27.601Z,93593.78
2023-01-15T17:27:55.725Z,93591.72
2023-01-15T17:30:26.150Z,93599.19
2023-01-15T17:32:52.570Z,93587.34
2023-01-15T17:35:25.133Z,93594.00
2023-01-15T17:37:51.564Z,93598.13
2023-01-15T17:40:18.215Z,93591.97
2023-01-15T17:42:44.921Z,93595.84
2023-01-15T17:45:19.419Z,93596.06
2023-01-15T17:47:46.089Z,93592.72
2023-01-15T17:50:14.420Z,93584.22
2023-01-15T17:52:41.325Z,93583.69
2023-01-15T17:55:30.522Z,93579.06
2023-01-15T17:58:18.116Z,93575.44
2023-01-15T18:01:04.669Z,93574.44
2023-01-15T18:03:49.754Z,93575.44
2023-01-15T18:06:17.337Z,93559.50
2023-01-15T18:08:48.304Z,93565.66
2023-01-15T18:11:14.828Z,93556.94
2023-01-15T18:13:41.965Z,93562.31
2023-01-15T18:16:09.489Z,93560.28
2023-01-15T18:18:36.271Z,93562.06
2023-01-15T18:21:03.471Z,93566.16
2023-01-15T18:23:32.848Z,93573.38
2023-01-15T18:26:04.143Z,93569.00
2023-01-15T18:28:38.943Z,93560.53
2023-01-15T18:31:06.571Z,93567.22
2023-01-15T18:33:33.785Z,93566.16
2023-01-15T18:36:08.223Z,93564.38
2023-01-15T18:38:36.696Z,93554.34
2023-01-15T18:41:07.744Z,93557.16
2023-01-15T18:43:52.946Z,93558.44
2023-01-15T18:46:38.560Z,93552.28
2023-01-15T18:49:05.137Z,93555.88
2023-01-15T18:51:31.732Z,93559.19
2023-01-15T18:53:58.220Z,93560.44
2023-01-15T18:56:39.904Z,93553.78
2023-01-15T18:59:10.961Z,93558.91
2023-01-15T19:01:37.798Z,93563.53
2023-01-15T19:04:10.586Z,93544.72
2023-01-15T19:06:38.682Z,93559.66
2023-01-15T19:09:06.433Z,93554.78
2023-01-15T19:11:32.911Z,93551.19
2023-01-15T19:14:18.085Z,93537.81
2023-01-15T19:17:03.535Z,93538.38
2023-01-15T19:19:30.075Z,93547.59
2023-01-15T19:22:15.102Z,93544.00
2023-01-15T19:24:41.520Z,93543.50
2023-01-15T19:27:08.046Z,93533.47
2023-01-15T19:29:34.624Z,93540.69
2023-01-15T19:32:03.968Z,93545.56
2023-01-15T19:34:33.927Z,93546.09
2023-01-15T19:37:00.818Z,93551.75
2023-01-15T19:39:27.766Z,93546.09
2023-01-15T19:42:13.181Z,93556.38
2023-01-15T19:44:58.545Z,93550.22
2023-01-15T19:47:48.414Z,93546.63
2023-01-15T19:50:20.010Z,93545.59
2023-01-15T19:52:54.466Z,93536.34
2023-01-15T19:55:23.039Z,93539.19
2023-01-15T19:58:00.697Z,93534.81
2023-01-15T20:00:28.433Z,93532.25
2023-01-15T20:02:56.224Z,93527.09
2023-01-15T20:05:24.550Z,93534.56
2023-01-15T20:07:50.958Z,93530.47
2023-01-15T20:10:20.029Z,93521.47
2023-01-15T20:13:04.774Z,93511.44
2023-01-15T20:15:31.419Z,93509.13
2023-01-15T20:17:58.505Z,93512.72
2023-01-15T20:20:26.139Z,93502.16
2023-01-15T20:22:55.867Z,93495.50
2023-01-15T20:25:22.447Z,93504.22
2023-01-15T20:27:48.842Z,93498.84
2023-01-15T20:30:18.844Z,93505.00
2023-01-15T20:32:47.494Z,93499.59
2023-01-15T20:35:16.978Z,93507.78
2023-01-15T20:37:43.416Z,93499.84
2023-01-15T20:40:10.443Z,93497.53
2023-01-15T20:42:55.605Z,93497.00
2023-01-15T20:45:22.063Z,93489.03
2023-01-15T20:48:07.398Z,93480.81
2023-01-15T20:50:36.179Z,93480.53
2023-01-15T20:53:04.711Z,93474.13
2023-01-15T20:55:45.638Z,93485.16
2023-01-15T20:58:21.444Z,93476.19
2023-01-15T21:00:47.946Z,93480.81
2023-01-15T21:03:14.378Z,93469.50
2023-01-15T21:05:40.801Z,93467.47
2023-01-15T21:08:07.191Z,93471.56
2023-01-15T21:10:33.615Z,93466.69
2023-01-15T21:13:00.209Z,93455.88
2023-01-15T21:15:26.632Z,93450.75
2023-01-15T21:17:53.026Z,93446.63
2023-01-15T21:20:19.483Z,93438.69
2023-01-15T21:22:47.310Z,93445.88
2023-01-15T21:25:13.741Z,93440.72
2023-01-15T21:27:40.241Z,93450.22
2023-01-15T21:30:08.024Z,93441.22
2023-01-15T21:32:34.481Z,93442.25
2023-01-15T21:35:00.886Z,93448.94
2023-01-15T21:37:27.765Z,93444.09
2023-01-15T21:39:54.184Z,93444.34
2023-01-15T21:42:40.565Z,93442.03
2023-01-15T21:45:08.288Z,93438.19
2023-01-15T21:47:36.866Z,93419.19
2023-01-15T21:50:05.215Z,93419.47
2023-01-15T21:52:33.568Z,93408.16
2023-01-15T21:55:00.211Z,93395.59
2023-01-15T21:57:29.162Z,93388.41
2023-01-15T21:59:55.721Z,93388.91
2023-01-15T22:02:23.367Z,93385.81
2023-01-15T22:04:50.518Z,93375.81
2023-01-15T22:07:18.246Z,93384.53
2023-01-15T22:09:44.993Z,93369.91
2023-01-15T22:12:12.631Z,93358.09
2023-01-15T22:14:39.165Z,93352.97
2023-01-15T22:17:05.850Z,93342.44
2023-01-15T22:19:33.145Z,93343.47
2023-01-15T22:22:03.073Z,93337.56
2023-01-15T22:24:32.061Z,93339.09
2023-01-15T22:26:59.601Z,93337.56
2023-01-15T22:29:27.689Z,93321.16
2023-01-15T22:31:54.922Z,93321.13
2023-01-15T22:34:23.025Z,93315.47
2023-01-15T22:36:50.449Z,93301.09
2023-01-15T22:39:17.564Z,93302.66
2023-01-15T22:42:03.444Z,93292.88
2023-01-15T22:44:30.061Z,93293.94
2023-01-15T22:46:57.040Z,93288.78
2023-01-15T22:49:24.291Z,93284.16
2023-01-15T22:51:51.347Z,93290.59
2023-01-15T22:54:19.358Z,93287.75
2023-01-15T22:56:46.978Z,93285.19
2023-01-15T22:59:14.849Z,93276.47
2023-01-15T23:01:42.479Z,93282.63
2023-01-15T23:04:19.092Z,93272.34
2023-01-15T23:06:46.185Z,93273.63
2023-01-15T23:09:13.178Z,93277.75
2023-01-15T23:11:39.892Z,93265.19
2023-01-15T23:14:07.757Z,93252.31
2023-01-15T23:16:34.786Z,93258.50
2023-01-15T23:19:01.957Z,93249.25
2023-01-15T23:21:28.938Z,93251.84
2023-01-15T23:23:56.987Z,93258.75
2023-01-15T23:26:24.887Z,93242.31
2023-01-15T23:28:51.683Z,93243.88
2023-01-15T23:31:19.376Z,93241.81
2023-01-15T23:33:46.164Z,93246.72
2023-01-15T23:36:13.087Z,93234.38
2023-01-15T23:38:41.585Z,93236.66
2023-01-15T23:41:14.045Z,93225.13
2023-01-15T23:44:00.166Z,93215.63
2023-01-15T23:46:33.403Z,93214.59
2023-01-15T23:49:01.566Z,93195.63
2023-01-15T23:51:28.334Z,93191.25
2023-01-15T23:53:55.581Z,93187.66
2023-01-15T23:56:22.433Z,93178.91
2023-01-15T23:58:49.148Z,93184.06
